createdAt,value
2019-04-20T00:00:29.313Z,19.56
2019-04-20T00:01:31.943Z,19.56
2019-04-20T00:02:27.468Z,19.56
2019-04-20T00:03:30.778Z,19.55
2019-04-20T00:04:30.897Z,19.55
2019-04-20T00:05:27.468Z,19.55
2019-04-20T00:06:27.053Z,19.55
2019-04-20T00:07:29.897Z,19.55
2019-04-20T00:08:30.047Z,19.54
2019-04-20T00:09:31.001Z,19.55
2019-04-20T00:10:28.742Z,19.54
2019-04-20T00:11:35.294Z,19.54
2019-04-20T00:12:36.409Z,19.53
2019-04-20T00:13:35.461Z,19.53
2019-04-20T00:14:30.733Z,19.52
2019-04-20T00:15:26.568Z,19.53
2019-04-20T00:16:27.214Z,19.53
2019-04-20T00:17:26.759Z,19.51
2019-04-20T00:18:34.278Z,19.52
2019-04-20T00:19:34.285Z,19.52
2019-04-20T00:20:30.903Z,19.51
2019-04-20T00:21:26.920Z,19.5
2019-04-20T00:22:34.068Z,19.5
2019-04-20T00:23:33.353Z,19.5
2019-04-20T00:24:30.933Z,19.5
2019-04-20T00:25:41.564Z,19.5
2019-04-20T00:26:52.885Z,19.5
2019-04-20T00:27:48.453Z,19.5
2019-04-20T00:28:44.092Z,19.48
2019-04-20T00:29:44.675Z,19.49
2019-04-20T00:30:46.530Z,19.49
2019-04-20T00:31:39.832Z,19.48
2019-04-20T00:32:41.109Z,19.48
2019-04-20T00:33:39.430Z,19.48
2019-04-20T00:34:31.929Z,19.47
2019-04-20T00:35:27.140Z,19.47
2019-04-20T00:36:27.617Z,19.47
2019-04-20T00:37:27.722Z,19.47
2019-04-20T00:38:33.454Z,19.47
2019-04-20T00:39:27.831Z,19.47
2019-04-20T00:40:26.720Z,19.47
2019-04-20T00:41:27.666Z,19.46
2019-04-20T00:42:33.680Z,19.46
2019-04-20T00:43:32.119Z,19.46
2019-04-20T00:44:30.260Z,19.45
2019-04-20T00:45:30.496Z,19.45
2019-04-20T00:46:32.806Z,19.45
2019-04-20T00:47:36.745Z,19.46
2019-04-20T00:48:37.256Z,19.45
2019-04-20T00:49:38.642Z,19.44
2019-04-20T00:50:40.086Z,19.44
2019-04-20T00:51:44.710Z,19.44
2019-04-20T00:52:39.827Z,19.44
2019-04-20T00:53:33.238Z,19.44
2019-04-20T00:54:26.599Z,19.43
2019-04-20T00:55:27.292Z,19.44
2019-04-20T00:56:26.637Z,19.43
2019-04-20T00:57:36.726Z,19.43
2019-04-20T00:58:31.437Z,19.42
2019-04-20T00:59:39.233Z,19.42
2019-04-20T01:00:40.416Z,19.42
2019-04-20T01:01:47.350Z,19.42
2019-04-20T01:02:35.950Z,19.41
2019-04-20T01:03:42.195Z,19.42
2019-04-20T01:04:47.378Z,19.41
2019-04-20T01:05:46.187Z,19.41
2019-04-20T01:06:40.470Z,19.41
2019-04-20T01:07:34.540Z,19.4
2019-04-20T01:08:27.440Z,19.41
2019-04-20T01:09:26.632Z,19.4
2019-04-20T01:10:28.119Z,19.4
2019-04-20T01:11:30.759Z,19.4
2019-04-20T01:12:30.225Z,19.4
2019-04-20T01:13:27.111Z,19.4
2019-04-20T01:14:34.742Z,19.4
2019-04-20T01:15:37.420Z,19.4
2019-04-20T01:16:35.267Z,19.39
2019-04-20T01:17:26.853Z,19.39
2019-04-20T01:18:26.838Z,19.4
2019-04-20T01:19:26.713Z,19.39
2019-04-20T01:20:27.918Z,19.38
2019-04-20T01:21:29.734Z,19.39
2019-04-20T01:22:28.660Z,19.38
2019-04-20T01:23:35.356Z,19.38
2019-04-20T01:24:31.242Z,19.38
2019-04-20T01:25:32.074Z,19.38
2019-04-20T01:26:27.675Z,19.38
2019-04-20T01:27:39.495Z,19.38
2019-04-20T01:28:41.722Z,19.38
2019-04-20T01:29:35.478Z,19.37
2019-04-20T01:30:33.844Z,19.37
2019-04-20T01:31:34.485Z,19.37
2019-04-20T01:32:34.138Z,19.36
2019-04-20T01:33:39.957Z,19.37
2019-04-20T01:34:38.836Z,19.36
2019-04-20T01:35:43.769Z,19.36
2019-04-20T01:36:45.582Z,19.36
2019-04-20T01:37:38.267Z,19.36
2019-04-20T01:38:39.763Z,19.35
2019-04-20T01:39:35.220Z,19.35
2019-04-20T01:40:27.453Z,19.35
2019-04-20T01:41:26.750Z,19.34
2019-04-20T01:42:27.513Z,19.34
2019-04-20T01:43:26.989Z,19.35
2019-04-20T01:44:33.120Z,19.34
2019-04-20T01:45:31.086Z,19.34
2019-04-20T01:46:28.401Z,19.34
2019-04-20T01:47:31.838Z,19.34
2019-04-20T01:48:30.431Z,19.34
2019-04-20T01:49:30.503Z,19.34
2019-04-20T01:50:29.965Z,19.33
2019-04-20T01:51:32.310Z,19.33
2019-04-20T01:52:35.863Z,19.32
2019-04-20T01:53:43.968Z,19.33
2019-04-20T01:54:45.158Z,19.33
2019-04-20T01:55:42.310Z,19.32
2019-04-20T01:56:39.967Z,19.32
2019-04-20T01:57:32.695Z,19.31
2019-04-20T01:58:46.005Z,19.32
2019-04-20T01:59:39.527Z,19.32
2019-04-20T02:00:30.648Z,19.31
2019-04-20T02:01:29.944Z,19.31
2019-04-20T02:02:27.778Z,19.31
2019-04-20T02:03:30.987Z,19.31
2019-04-20T02:04:30.697Z,19.31
2019-04-20T02:05:30.939Z,19.31
2019-04-20T02:06:28.527Z,19.3
2019-04-20T02:07:33.483Z,19.29
2019-04-20T02:08:29.127Z,19.31
2019-04-20T02:09:29.573Z,19.31
2019-04-20T02:10:36.826Z,19.31
2019-04-20T02:11:32.647Z,19.3
2019-04-20T02:12:31.049Z,19.29
2019-04-20T02:13:34.533Z,19.29
2019-04-20T02:14:34.114Z,19.3
2019-04-20T02:15:32.457Z,19.3
2019-04-20T02:16:35.326Z,19.29
2019-04-20T02:17:35.119Z,19.29
2019-04-20T02:18:35.773Z,19.29
2019-04-20T02:19:41.204Z,19.28
2019-04-20T02:20:42.694Z,19.28
2019-04-20T02:21:42.073Z,19.29
2019-04-20T02:22:41.989Z,19.28
2019-04-20T02:23:35.598Z,19.28
2019-04-20T02:24:27.797Z,19.28
2019-04-20T02:25:26.943Z,19.28
2019-04-20T02:26:28.099Z,19.28
2019-04-20T02:27:34.453Z,19.27
2019-04-20T02:28:53.435Z,19.28
2019-04-20T02:30:06.101Z,19.27
2019-04-20T02:32:15.168Z,19.26
2019-04-20T02:33:05.356Z,19.27
2019-04-20T02:33:55.447Z,19.27
2019-04-20T02:36:00.374Z,19.26
2019-04-20T02:37:07.473Z,19.26
2019-04-20T02:39:59.714Z,19.26
2019-04-20T02:40:56.595Z,19.26
2019-04-20T02:41:57.083Z,19.26
2019-04-20T02:43:05.206Z,19.25
2019-04-20T02:45:57.181Z,19.25
2019-04-20T02:49:00.416Z,19.24
2019-04-20T02:49:56.259Z,19.24
2019-04-20T02:50:58.188Z,19.24
2019-04-20T02:52:02.255Z,19.24
2019-04-20T02:53:02.534Z,19.24
2019-04-20T02:55:00.136Z,19.24
2019-04-20T02:56:10.806Z,19.23
2019-04-20T02:58:00.196Z,19.23
2019-04-20T02:59:01.821Z,19.23
2019-04-20T03:00:05.140Z,19.22
2019-04-20T03:00:52.078Z,19.22
2019-04-20T03:01:44.911Z,19.23
2019-04-20T03:02:38.118Z,19.23
2019-04-20T03:03:34.406Z,19.22
2019-04-20T03:04:36.940Z,19.22
2019-04-20T03:05:38.119Z,19.22
2019-04-20T03:06:39.434Z,19.22
2019-04-20T03:07:37.827Z,19.21
2019-04-20T03:08:51.003Z,19.22
2019-04-20T03:09:43.235Z,19.22
2019-04-20T03:10:52.227Z,19.22
2019-04-20T03:11:58.066Z,19.21
2019-04-20T03:12:49.303Z,19.21
2019-04-20T03:13:48.385Z,19.2
2019-04-20T03:14:42.169Z,19.21
2019-04-20T03:15:47.970Z,19.2
2019-04-20T03:16:43.509Z,19.2
2019-04-20T03:17:44.287Z,19.2
2019-04-20T03:18:44.177Z,19.21
2019-04-20T03:19:40.733Z,19.21
2019-04-20T03:20:45.828Z,19.2
2019-04-20T03:21:51.152Z,19.2
2019-04-20T03:23:10.068Z,19.2
2019-04-20T03:23:49.832Z,19.2
2019-04-20T03:24:48.403Z,19.2
2019-04-20T03:25:47.966Z,19.2
2019-04-20T03:26:40.038Z,19.2
2019-04-20T03:27:40.860Z,19.2
2019-04-20T03:28:42.749Z,19.19
2019-04-20T03:29:46.760Z,19.18
2019-04-20T03:32:12.724Z,19.19
2019-04-20T03:34:22.393Z,19.19
2019-04-20T03:35:56.876Z,19.18
2019-04-20T03:36:52.911Z,19.18
2019-04-20T03:37:48.163Z,19.18
2019-04-20T03:38:46.833Z,19.18
2019-04-20T03:39:40.278Z,19.17
2019-04-20T03:40:39.801Z,19.18
2019-04-20T03:41:34.835Z,19.17
2019-04-20T03:42:26.814Z,19.17
2019-04-20T03:43:26.776Z,19.17
2019-04-20T03:44:30.648Z,19.17
2019-04-20T03:45:28.931Z,19.17
2019-04-20T03:46:36.378Z,19.17
2019-04-20T03:47:37.698Z,19.17
2019-04-20T03:48:40.631Z,19.17
2019-04-20T03:49:47.904Z,19.16
2019-04-20T03:50:46.126Z,19.17
2019-04-20T03:51:46.616Z,19.16
2019-04-20T03:52:42.753Z,19.17
2019-04-20T03:53:43.140Z,19.16
2019-04-20T03:54:38.526Z,19.16
2019-04-20T03:55:44.309Z,19.17
2019-04-20T03:56:43.693Z,19.16
2019-04-20T03:57:51.048Z,19.16
2019-04-20T03:58:44.016Z,19.16
2019-04-20T03:59:48.324Z,19.15
2019-04-20T04:00:45.388Z,19.16
2019-04-20T04:02:07.300Z,19.15
2019-04-20T04:03:01.281Z,19.15
2019-04-20T04:03:52.938Z,19.15
2019-04-20T04:04:43.705Z,19.14
2019-04-20T04:05:40.664Z,19.15
2019-04-20T04:06:35.927Z,19.15
2019-04-20T04:07:35.336Z,19.15
2019-04-20T04:08:34.331Z,19.15
2019-04-20T04:09:36.939Z,19.15
2019-04-20T04:10:38.475Z,19.15
2019-04-20T04:11:43.030Z,19.14
2019-04-20T04:12:32.245Z,19.14
2019-04-20T04:13:27.009Z,19.14
2019-04-20T04:14:26.766Z,19.15
2019-04-20T04:15:27.522Z,19.14
2019-04-20T04:16:32.738Z,19.14
2019-04-20T04:17:33.206Z,19.14
2019-04-20T04:18:33.184Z,19.14
2019-04-20T04:19:31.580Z,19.15
2019-04-20T04:20:31.446Z,19.13
2019-04-20T04:21:40.438Z,19.13
2019-04-20T04:22:43.240Z,19.13
2019-04-20T04:23:44.314Z,19.13
2019-04-20T04:24:36.623Z,19.13
2019-04-20T04:25:37.366Z,19.12
2019-04-20T04:26:42.576Z,19.13
2019-04-20T04:27:40.020Z,19.12
2019-04-20T04:28:43.157Z,19.13
2019-04-20T04:29:46.554Z,19.12
2019-04-20T04:30:39.872Z,19.13
2019-04-20T04:31:55.194Z,19.13
2019-04-20T04:33:06.572Z,19.13
2019-04-20T04:34:42.879Z,19.12
2019-04-20T04:35:41.157Z,19.13
2019-04-20T04:36:49.645Z,19.12
2019-04-20T04:37:45.552Z,19.12
2019-04-20T04:38:47.347Z,19.12
2019-04-20T04:39:48.311Z,19.13
2019-04-20T04:40:55.010Z,19.13
2019-04-20T04:41:48.186Z,19.12
2019-04-20T04:42:46.355Z,19.12
2019-04-20T04:43:43.926Z,19.12
2019-04-20T04:44:39.837Z,19.12
2019-04-20T04:45:29.703Z,19.11
2019-04-20T04:46:26.918Z,19.12
2019-04-20T04:47:26.614Z,19.11
2019-04-20T04:48:31.916Z,19.11
2019-04-20T04:49:33.280Z,19.11
2019-04-20T04:50:29.578Z,19.12
2019-04-20T04:51:38.385Z,19.11
2019-04-20T04:52:35.921Z,19.1
2019-04-20T04:53:39.284Z,19.11
2019-04-20T04:54:37.435Z,19.11
2019-04-20T04:55:36.911Z,19.12
2019-04-20T04:56:27.351Z,19.11
2019-04-20T04:57:26.549Z,19.12
2019-04-20T04:58:27.735Z,19.11
2019-04-20T04:59:27.527Z,19.11
2019-04-20T05:00:31.002Z,19.11
2019-04-20T05:01:30.541Z,19.1
2019-04-20T05:02:32.383Z,19.11
2019-04-20T05:03:44.521Z,19.1
2019-04-20T05:04:48.131Z,19.11
2019-04-20T05:05:40.941Z,19.1
2019-04-20T05:06:37.211Z,19.1
2019-04-20T05:07:38.197Z,19.1
2019-04-20T05:08:34.350Z,19.1
2019-04-20T05:09:27.635Z,19.1
2019-04-20T05:10:26.709Z,19.11
2019-04-20T05:11:27.910Z,19.09
2019-04-20T05:12:29.781Z,19.1
2019-04-20T05:13:33.867Z,19.09
2019-04-20T05:14:40.430Z,19.09
2019-04-20T05:15:37.160Z,19.1
2019-04-20T05:16:44.917Z,19.09
2019-04-20T05:17:49.927Z,19.09
2019-04-20T05:18:49.886Z,19.09
2019-04-20T05:19:47.309Z,19.09
2019-04-20T05:20:46.405Z,19.09
2019-04-20T05:21:53.407Z,19.1
2019-04-20T05:22:45.303Z,19.09
2019-04-20T05:23:37.144Z,19.08
2019-04-20T05:24:42.251Z,19.09
2019-04-20T05:25:51.832Z,19.09
2019-04-20T05:26:49.189Z,19.09
2019-04-20T05:27:45.047Z,19.09
2019-04-20T05:28:36.658Z,19.09
2019-04-20T05:29:30.351Z,19.09
2019-04-20T05:30:26.638Z,19.09
2019-04-20T05:31:33.855Z,19.09
2019-04-20T05:32:35.647Z,19.09
2019-04-20T05:33:41.020Z,19.09
2019-04-20T05:34:52.222Z,19.09
2019-04-20T05:35:42.368Z,19.12
2019-04-20T05:36:44.522Z,19.12
2019-04-20T05:37:48.535Z,19.13
2019-04-20T05:38:46.777Z,19.13
2019-04-20T05:39:49.898Z,19.13
2019-04-20T05:40:45.803Z,19.14
2019-04-20T05:41:41.620Z,19.14
2019-04-20T05:42:48.074Z,19.14
2019-04-20T05:43:41.004Z,19.14
2019-04-20T05:44:49.698Z,19.13
2019-04-20T05:45:41.219Z,19.13
2019-04-20T05:46:45.684Z,19.14
2019-04-20T05:47:42.727Z,19.13
2019-04-20T05:48:50.306Z,19.12
2019-04-20T05:49:44.891Z,19.13
2019-04-20T05:50:41.515Z,19.12
2019-04-20T05:51:43.088Z,19.11
2019-04-20T05:52:55.983Z,19.12
2019-04-20T05:53:44.191Z,19.11
2019-04-20T05:54:44.514Z,19.11
2019-04-20T05:55:42.888Z,19.11
2019-04-20T05:56:45.355Z,19.11
2019-04-20T05:57:49.957Z,19.12
2019-04-20T05:58:49.232Z,19.11
2019-04-20T05:59:50.761Z,19.11
2019-04-20T06:00:47.254Z,19.11
2019-04-20T06:01:52.201Z,19.11
2019-04-20T06:02:43.681Z,19.11
2019-04-20T06:03:42.200Z,19.11
2019-04-20T06:04:59.524Z,19.12
2019-04-20T06:05:52.113Z,19.11
2019-04-20T06:06:48.946Z,19.11
2019-04-20T06:07:47.155Z,19.11
2019-04-20T06:08:53.549Z,19.1
2019-04-20T06:09:46.087Z,19.09
2019-04-20T06:10:49.258Z,19.11
2019-04-20T06:11:54.870Z,19.1
2019-04-20T06:12:45.316Z,19.1
2019-04-20T06:13:37.717Z,19.09
2019-04-20T06:14:42.394Z,19.1
2019-04-20T06:15:45.993Z,19.1
2019-04-20T06:16:49.669Z,19.11
2019-04-20T06:17:43.163Z,19.1
2019-04-20T06:18:39.940Z,19.1
2019-04-20T06:19:43.628Z,19.1
2019-04-20T06:20:47.505Z,19.1
2019-04-20T06:21:50.183Z,19.09
2019-04-20T06:22:48.211Z,19.09
2019-04-20T06:23:50.513Z,19.1
2019-04-20T06:24:51.452Z,19.1
2019-04-20T06:26:03.458Z,19.09
2019-04-20T06:26:53.260Z,19.09
2019-04-20T06:28:01.770Z,19.09
2019-04-20T06:28:42.290Z,19.09
2019-04-20T06:29:45.392Z,19.1
2019-04-20T06:30:41.085Z,19.1
2019-04-20T06:31:45.278Z,19.09
2019-04-20T06:32:44.056Z,19.1
2019-04-20T06:33:59.672Z,19.09
2019-04-20T06:34:41.169Z,19.09
2019-04-20T06:36:07.224Z,19.09
2019-04-20T06:36:49.500Z,19.1
2019-04-20T06:37:53.583Z,19.09
2019-04-20T06:38:55.583Z,19.09
2019-04-20T06:39:46.280Z,19.09
2019-04-20T06:42:06.419Z,19.09
2019-04-20T06:42:39.444Z,19.09
2019-04-20T06:43:52.603Z,19.09
2019-04-20T06:44:42.514Z,19.09
2019-04-20T06:45:50.938Z,19.09
2019-04-20T06:46:52.312Z,19.08
2019-04-20T06:47:51.350Z,19.07
2019-04-20T06:48:51.166Z,19.09
2019-04-20T06:49:41.884Z,19.09
2019-04-20T06:50:43.844Z,19.08
2019-04-20T06:51:47.221Z,19.08
2019-04-20T06:52:42.098Z,19.09
2019-04-20T06:53:46.809Z,19.08
2019-04-20T06:54:48.131Z,19.08
2019-04-20T06:55:48.254Z,19.08
2019-04-20T06:56:47.015Z,19.08
2019-04-20T06:57:44.862Z,19.09
2019-04-20T06:58:49.108Z,19.08
2019-04-20T06:59:45.687Z,19.09
2019-04-20T07:00:46.252Z,19.08
2019-04-20T07:01:55.998Z,19.09
2019-04-20T07:02:58.807Z,19.09
2019-04-20T07:05:44.605Z,19.08
2019-04-20T07:09:05.942Z,19.08
2019-04-20T07:09:59.655Z,19.09
2019-04-20T07:10:51.223Z,19.08
2019-04-20T07:11:46.074Z,19.08
2019-04-20T07:12:44.831Z,19.08
2019-04-20T07:13:35.545Z,19.08
2019-04-20T07:14:40.193Z,19.08
2019-04-20T07:15:39.742Z,19.08
2019-04-20T07:16:44.454Z,19.08
2019-04-20T07:17:53.175Z,19.08
2019-04-20T07:18:49.490Z,19.08
2019-04-20T07:19:44.240Z,19.08
2019-04-20T07:20:55.205Z,19.08
2019-04-20T07:22:01.656Z,19.07
2019-04-20T07:22:59.275Z,19.08
2019-04-20T07:23:46.344Z,19.09
2019-04-20T07:24:51.551Z,19.11
2019-04-20T07:25:47.146Z,19.1
2019-04-20T07:26:48.987Z,19.12
2019-04-20T07:27:47.767Z,19.14
2019-04-20T07:28:52.356Z,19.14
2019-04-20T07:29:51.293Z,19.16
2019-04-20T07:30:55.046Z,19.15
2019-04-20T07:31:44.069Z,19.17
2019-04-20T07:32:52.021Z,19.18
2019-04-20T07:33:46.180Z,19.18
2019-04-20T07:34:47.393Z,19.19
2019-04-20T07:35:45.994Z,19.2
2019-04-20T07:36:45.382Z,19.2
2019-04-20T07:38:15.223Z,19.2
2019-04-20T07:38:46.046Z,19.2
2019-04-20T07:39:47.624Z,19.21
2019-04-20T07:40:41.696Z,19.2
2019-04-20T07:41:54.225Z,19.19
2019-04-20T07:42:51.734Z,19.19
2019-04-20T07:43:58.496Z,19.18
2019-04-20T07:44:48.492Z,19.18
2019-04-20T07:45:41.181Z,19.18
2019-04-20T07:47:06.788Z,19.18
2019-04-20T07:48:01.218Z,19.18
2019-04-20T07:48:48.813Z,19.18
2019-04-20T07:49:45.527Z,19.18
2019-04-20T07:50:40.288Z,19.18
2019-04-20T07:51:32.018Z,19.18
2019-04-20T07:52:38.342Z,19.17
2019-04-20T07:53:40.108Z,19.17
2019-04-20T07:54:58.276Z,19.17
2019-04-20T07:55:50.405Z,19.17
2019-04-20T07:56:47.457Z,19.17
2019-04-20T07:57:41.749Z,19.17
2019-04-20T07:58:35.632Z,19.17
2019-04-20T07:59:37.182Z,19.17
2019-04-20T08:00:54.913Z,19.17
2019-04-20T08:01:52.452Z,19.18
2019-04-20T08:02:48.586Z,19.17
2019-04-20T08:03:49.996Z,19.17
2019-04-20T08:04:42.087Z,19.16
2019-04-20T08:05:39.078Z,19.18
2019-04-20T08:06:36.618Z,19.18
2019-04-20T08:07:38.919Z,19.18
2019-04-20T08:08:43.414Z,19.17
2019-04-20T08:09:34.809Z,19.17
2019-04-20T08:10:51.386Z,19.16
2019-04-20T08:11:48.579Z,19.17
2019-04-20T08:12:49.755Z,19.17
2019-04-20T08:14:55.188Z,19.16
2019-04-20T08:15:48.724Z,19.17
2019-04-20T08:16:58.103Z,19.16
2019-04-20T08:17:49.329Z,19.16
2019-04-20T08:18:49.582Z,19.16
2019-04-20T08:19:45.068Z,19.16
2019-04-20T08:20:44.887Z,19.16
2019-04-20T08:21:47.146Z,19.16
2019-04-20T08:22:47.304Z,19.16
2019-04-20T08:23:48.688Z,19.16
2019-04-20T08:24:42.520Z,19.16
2019-04-20T08:25:39.435Z,19.16
2019-04-20T08:26:32.421Z,19.16
2019-04-20T08:27:27.619Z,19.16
2019-04-20T08:28:35.772Z,19.17
2019-04-20T08:29:37.733Z,19.17
2019-04-20T08:30:41.142Z,19.17
2019-04-20T08:31:39.705Z,19.17
2019-04-20T08:32:41.074Z,19.18
2019-04-20T08:33:54.406Z,19.2
2019-04-20T08:34:53.199Z,19.2
2019-04-20T08:35:52.266Z,19.21
2019-04-20T08:36:50.710Z,19.2
2019-04-20T08:38:00.736Z,19.22
2019-04-20T08:40:47.481Z,19.23
2019-04-20T08:41:49.917Z,19.24
2019-04-20T08:42:55.903Z,19.25
2019-04-20T08:45:03.520Z,19.25
2019-04-20T08:45:46.465Z,19.25
2019-04-20T08:46:58.352Z,19.26
2019-04-20T08:47:49.726Z,19.27
2019-04-20T08:48:45.695Z,19.27
2019-04-20T08:49:48.994Z,19.28
2019-04-20T08:50:44.871Z,19.28
2019-04-20T08:51:54.854Z,19.29
2019-04-20T08:53:08.719Z,19.3
2019-04-20T08:54:41.284Z,19.3
2019-04-20T08:55:41.201Z,19.31
2019-04-20T08:56:35.898Z,19.31
2019-04-20T08:57:27.011Z,19.32
2019-04-20T08:58:27.233Z,19.32
2019-04-20T08:59:26.633Z,19.31
2019-04-20T09:00:32.012Z,19.32
2019-04-20T09:01:29.010Z,19.33
2019-04-20T09:02:27.952Z,19.33
2019-04-20T09:03:31.360Z,19.32
2019-04-20T09:04:36.991Z,19.33
2019-04-20T09:05:34.490Z,19.35
2019-04-20T09:06:39.770Z,19.35
2019-04-20T09:07:29.972Z,19.36
2019-04-20T09:08:33.739Z,19.36
2019-04-20T09:09:48.813Z,19.38
2019-04-20T09:10:42.041Z,19.38
2019-04-20T09:11:48.989Z,19.38
2019-04-20T09:12:38.922Z,19.39
2019-04-20T09:13:36.134Z,19.39
2019-04-20T09:14:28.334Z,19.39
2019-04-20T09:15:27.782Z,19.39
2019-04-20T09:16:34.724Z,19.37
2019-04-20T09:17:35.494Z,19.37
2019-04-20T09:18:33.070Z,19.38
2019-04-20T09:19:36.410Z,19.37
2019-04-20T09:20:36.092Z,19.36
2019-04-20T09:21:35.416Z,19.35
2019-04-20T09:22:37.771Z,19.34
2019-04-20T09:23:40.171Z,19.36
2019-04-20T09:24:50.806Z,19.33
2019-04-20T09:25:53.196Z,19.35
2019-04-20T09:28:56.593Z,19.38
2019-04-20T09:30:00.132Z,19.38
2019-04-20T09:30:53.033Z,19.37
2019-04-20T09:31:56.953Z,19.38
2019-04-20T09:32:23.013Z,19.47
2019-04-20T09:32:43.778Z,19.51
2019-04-20T09:33:45.745Z,19.58
2019-04-20T09:34:46.311Z,19.64
2019-04-20T09:35:42.726Z,19.69
2019-04-20T09:37:13.984Z,19.75
2019-04-20T09:38:09.730Z,19.78
2019-04-20T09:38:47.679Z,19.8
2019-04-20T09:39:52.801Z,19.83
2019-04-20T09:40:49.281Z,19.85
2019-04-20T09:41:58.420Z,19.86
2019-04-20T09:42:36.646Z,19.88
2019-04-20T09:43:36.836Z,19.89
2019-04-20T09:44:42.534Z,19.9
2019-04-20T09:45:44.878Z,19.91
2019-04-20T09:46:45.914Z,19.92
2019-04-20T09:47:44.921Z,19.93
2019-04-20T09:48:34.552Z,19.93
2019-04-20T09:49:38.624Z,19.94
2019-04-20T09:50:47.423Z,19.94
2019-04-20T09:51:49.238Z,19.95
2019-04-20T09:56:11.560Z,19.97
2019-04-20T09:57:13.026Z,19.97
2019-04-20T09:58:08.085Z,19.97
2019-04-20T09:59:15.997Z,19.97
2019-04-20T09:59:49.407Z,19.97
2019-04-20T10:00:45.740Z,19.98
2019-04-20T10:01:18.928Z,19.98
2019-04-20T10:02:13.615Z,19.98
2019-04-20T10:03:06.611Z,19.98
2019-04-20T10:04:07.343Z,19.98
2019-04-20T10:04:55.571Z,19.99
2019-04-20T10:05:37.844Z,19.99
2019-04-20T10:06:37.728Z,19.99
2019-04-20T10:07:39.203Z,19.98
2019-04-20T10:08:41.826Z,19.99
2019-04-20T10:09:42.745Z,20
2019-04-20T10:10:26.642Z,20
2019-04-20T10:11:06.096Z,20
2019-04-20T10:12:06.016Z,20
2019-04-20T10:13:17.157Z,20
2019-04-20T10:14:14.402Z,20
2019-04-20T10:15:18.956Z,20.01
2019-04-20T10:16:13.583Z,20.02
2019-04-20T10:17:13.730Z,20.03
2019-04-20T10:18:14.153Z,20.02
2019-04-20T10:19:13.646Z,20.03
2019-04-20T10:20:20.759Z,20.03
2019-04-20T10:21:13.774Z,20.04
2019-04-20T10:22:14.865Z,20.07
2019-04-20T10:23:14.340Z,19.93
2019-04-20T10:24:14.637Z,19.86
2019-04-20T10:25:14.939Z,19.82
2019-04-20T10:26:14.419Z,19.79
2019-04-20T10:27:14.581Z,19.76
2019-04-20T10:28:14.111Z,19.72
2019-04-20T10:29:15.346Z,19.7
2019-04-20T10:30:14.567Z,19.68
2019-04-20T10:31:14.720Z,19.65
2019-04-20T10:32:15.957Z,19.64
2019-04-20T10:33:15.373Z,19.63
2019-04-20T10:34:15.675Z,19.61
2019-04-20T10:35:16.625Z,19.61
2019-04-20T10:36:15.019Z,19.59
2019-04-20T10:37:13.980Z,19.59
2019-04-20T10:38:14.070Z,19.58
2019-04-20T10:39:14.019Z,19.56
2019-04-20T10:40:21.243Z,19.56
2019-04-20T10:41:27.637Z,19.55
2019-04-20T10:42:14.252Z,19.54
2019-04-20T10:43:14.289Z,19.53
2019-04-20T10:44:14.661Z,19.54
2019-04-20T10:45:14.909Z,19.53
2019-04-20T10:46:15.062Z,19.52
2019-04-20T10:47:14.695Z,19.53
2019-04-20T10:48:15.101Z,19.52
2019-04-20T10:49:15.308Z,19.51
2019-04-20T10:50:14.217Z,19.51
2019-04-20T10:51:15.506Z,19.5
2019-04-20T10:52:14.230Z,19.49
2019-04-20T10:53:14.098Z,19.5
2019-04-20T10:54:14.283Z,19.49
2019-04-20T10:55:14.674Z,19.5
2019-04-20T10:56:13.980Z,19.52
2019-04-20T10:57:15.416Z,19.53
2019-04-20T10:58:14.016Z,19.54
2019-04-20T10:59:14.022Z,19.56
2019-04-20T11:00:15.453Z,19.56
2019-04-20T11:01:14.015Z,19.57
2019-04-20T11:02:14.085Z,19.59
2019-04-20T11:03:15.541Z,19.61
2019-04-20T11:04:14.657Z,19.61
2019-04-20T11:05:14.749Z,19.62
2019-04-20T11:06:14.486Z,19.64
2019-04-20T11:07:14.627Z,19.64
2019-04-20T11:08:14.832Z,19.64
2019-04-20T11:09:14.416Z,19.64
2019-04-20T11:10:20.201Z,19.64
2019-04-20T11:11:20.005Z,19.62
2019-04-20T11:12:14.528Z,19.61
2019-04-20T11:13:15.132Z,19.6
2019-04-20T11:14:22.718Z,19.58
2019-04-20T11:15:14.582Z,19.58
2019-04-20T11:16:14.706Z,19.57
2019-04-20T11:17:14.165Z,19.55
2019-04-20T11:18:15.395Z,19.55
2019-04-20T11:19:14.115Z,19.54
2019-04-20T11:20:15.139Z,19.54
2019-04-20T11:21:15.308Z,19.53
2019-04-20T11:22:14.514Z,19.53
2019-04-20T11:23:14.138Z,19.52
2019-04-20T11:24:14.419Z,19.52
2019-04-20T11:25:14.475Z,19.51
2019-04-20T11:26:14.171Z,19.51
2019-04-20T11:27:14.334Z,19.51
2019-04-20T11:28:14.381Z,19.5
2019-04-20T11:29:14.187Z,19.5
2019-04-20T11:30:14.292Z,19.5
2019-04-20T11:31:14.507Z,19.49
2019-04-20T11:32:14.220Z,19.49
2019-04-20T11:33:14.060Z,19.5
2019-04-20T11:34:14.770Z,19.48
2019-04-20T11:35:22.731Z,19.49
2019-04-20T11:36:14.913Z,19.48
2019-04-20T11:37:15.215Z,19.48
2019-04-20T11:38:16.781Z,19.48
2019-04-20T11:39:14.711Z,19.48
2019-04-20T11:40:14.977Z,19.47
2019-04-20T11:41:21.334Z,19.47
2019-04-20T11:42:14.173Z,19.47
2019-04-20T11:43:14.077Z,19.47
2019-04-20T11:44:14.119Z,19.47
2019-04-20T11:45:14.974Z,19.47
2019-04-20T11:46:14.540Z,19.47
2019-04-20T11:47:15.149Z,19.49
2019-04-20T11:48:14.164Z,19.5
2019-04-20T11:49:15.341Z,19.52
2019-04-20T11:50:15.521Z,19.53
2019-04-20T11:51:13.912Z,19.52
2019-04-20T11:52:16.730Z,19.54
2019-04-20T11:53:14.960Z,19.55
2019-04-20T11:54:14.572Z,19.56
2019-04-20T11:55:14.018Z,19.55
2019-04-20T11:56:20.189Z,19.55
2019-04-20T11:57:15.319Z,19.57
2019-04-20T11:58:14.292Z,19.57
2019-04-20T11:59:14.755Z,19.61
2019-04-20T12:00:15.043Z,19.62
2019-04-20T12:01:18.276Z,19.63
2019-04-20T12:02:20.027Z,19.63
2019-04-20T12:03:23.315Z,19.63
2019-04-20T12:04:25.986Z,19.64
2019-04-20T12:05:24.544Z,19.64
2019-04-20T12:06:14.931Z,19.65
2019-04-20T12:07:15.072Z,19.65
2019-04-20T12:08:14.199Z,19.66
2019-04-20T12:09:14.885Z,19.67
2019-04-20T12:10:18.769Z,19.66
2019-04-20T12:11:26.268Z,19.68
2019-04-20T12:12:24.251Z,19.68
2019-04-20T12:13:14.704Z,19.69
2019-04-20T12:14:14.513Z,19.69
2019-04-20T12:15:14.748Z,19.68
2019-04-20T12:16:14.012Z,19.7
2019-04-20T12:17:15.295Z,19.68
2019-04-20T12:18:14.048Z,19.69
2019-04-20T12:19:14.678Z,19.69
2019-04-20T12:20:14.561Z,19.7
2019-04-20T12:21:14.783Z,19.69
2019-04-20T12:22:14.119Z,19.7
2019-04-20T12:23:14.138Z,19.71
2019-04-20T12:24:14.355Z,19.7
2019-04-20T12:25:14.210Z,19.71
2019-04-20T12:26:14.799Z,19.7
2019-04-20T12:27:14.616Z,19.72
2019-04-20T12:28:14.038Z,19.71
2019-04-20T12:29:14.123Z,19.73
2019-04-20T12:30:15.191Z,19.72
2019-04-20T12:31:19.911Z,19.73
2019-04-20T12:32:14.614Z,19.73
2019-04-20T12:33:15.497Z,19.73
2019-04-20T12:34:14.085Z,19.74
2019-04-20T12:35:14.161Z,19.75
2019-04-20T12:36:14.357Z,19.74
2019-04-20T12:37:15.366Z,19.75
2019-04-20T12:38:14.868Z,19.74
2019-04-20T12:39:15.061Z,19.75
2019-04-20T12:40:16.310Z,19.75
2019-04-20T12:41:14.520Z,19.75
2019-04-20T12:42:14.770Z,19.74
2019-04-20T12:43:15.126Z,19.75
2019-04-20T12:44:14.232Z,19.76
2019-04-20T12:45:14.002Z,19.75
2019-04-20T12:46:16.894Z,19.76
2019-04-20T12:47:14.125Z,19.77
2019-04-20T12:48:13.935Z,19.76
2019-04-20T12:49:13.997Z,19.77
2019-04-20T12:50:14.006Z,19.76
2019-04-20T12:51:15.468Z,19.76
2019-04-20T12:52:14.390Z,19.75
2019-04-20T12:53:14.803Z,19.75
2019-04-20T12:54:14.494Z,19.76
2019-04-20T12:55:14.577Z,19.75
2019-04-20T12:56:14.713Z,19.74
2019-04-20T12:57:14.481Z,19.73
2019-04-20T12:58:14.567Z,19.73
2019-04-20T12:59:14.103Z,19.73
2019-04-20T13:00:15.279Z,19.73
2019-04-20T13:01:14.631Z,19.73
2019-04-20T13:02:15.401Z,19.73
2019-04-20T13:03:14.179Z,19.74
2019-04-20T13:04:14.375Z,19.75
2019-04-20T13:05:15.139Z,19.76
2019-04-20T13:06:14.300Z,19.75
2019-04-20T13:07:15.503Z,19.76
2019-04-20T13:08:21.597Z,19.76
2019-04-20T13:09:14.562Z,19.76
2019-04-20T13:10:14.075Z,19.76
2019-04-20T13:11:14.064Z,19.78
2019-04-20T13:12:15.484Z,19.78
2019-04-20T13:13:14.399Z,19.8
2019-04-20T13:14:14.559Z,19.81
2019-04-20T13:15:14.183Z,19.8
2019-04-20T13:16:14.372Z,19.79
2019-04-20T13:17:14.501Z,19.79
2019-04-20T13:18:14.967Z,19.77
2019-04-20T13:19:15.074Z,19.77
2019-04-20T13:20:14.200Z,19.77
2019-04-20T13:21:14.122Z,19.76
2019-04-20T13:22:14.804Z,19.77
2019-04-20T13:23:14.995Z,19.75